Terminal Aerodrome Forecast
Issued by NWS Springfield, MO

Home | Current Version | Previous Version | Text Only | Print | Product List | Glossary On
Versions: 1 2 3 4 5 6 7 8 9 10 11 12 13 14 15 16 17
000
FTUS43 KSGF 222320
TAFSGF
TAF
KSGF 222320Z 2300/2324 16004KT P6SM BKN200
     FM230700 19004KT P6SM VCSH BKN070
     FM231400 27004KT P6SM VCTS OVC045CB=

USA.gov is the U.S. government's official web portal to all federal, state and local government web resources and services.